Time;durP1;ratioP1;P1;durP2;ratioP2;P2;SDS_P1;SDS_P2;PMS_P1;PMS_P2;Temp;Humidity;BMP_temperature;BMP_pressure;BME280_temperature;BME280_humidity;BME280_pressure;Samples;Min_cycle;Max_cycle;Signal;HPM_P1;HPM_P2
2023/12/21 00:01:47;;;;;;;;;0.00;0.00;;;;;10.72;85.05;101470.47;5060594;28;54402;-59
2023/12/21 00:04:12;;;;;;;;;3.00;2.33;;;;;10.73;85.09;101474.88;5059630;28;45481;-59
2023/12/21 00:06:38;;;;;;;;;2.00;0.33;;;;;10.72;85.15;101470.47;5060141;28;47140;-60
2023/12/21 00:09:06;;;;;;;;;1.00;1.00;;;;;10.72;85.12;101472.28;5055451;28;72111;-59
2023/12/21 00:11:31;;;;;;;;;0.00;0.00;;;;;10.72;85.35;101461.63;5059595;28;45336;-59
2023/12/21 00:13:58;;;;;;;;;0.33;0.00;;;;;10.71;85.41;101457.22;5059434;28;66100;-60
2023/12/21 00:16:24;;;;;;;;;0.00;0.00;;;;;10.71;85.37;101447.44;5053758;28;46327;-59
2023/12/21 00:18:49;;;;;;;;;3.00;0.00;;;;;10.71;85.53;101450.09;5059160;28;57150;-60
2023/12/21 00:21:14;;;;;;;;;0.67;0.00;;;;;10.69;85.84;101451.97;5059087;28;63502;-59
2023/12/21 00:23:39;;;;;;;;;2.00;0.00;;;;;10.67;85.68;101440.53;5059256;28;69740;-59
2023/12/21 00:26:05;;;;;;;;;0.33;0.00;;;;;10.68;85.98;101436.09;5056369;28;75542;-59
2023/12/21 00:28:30;;;;;;;;;0.00;0.00;;;;;10.65;86.54;101420.22;5057111;28;71704;-59
2023/12/21 00:30:55;;;;;;;;;2.67;0.00;;;;;10.61;87.61;101438.09;5055938;28;66253;-59
2023/12/21 00:33:21;;;;;;;;;1.00;1.00;;;;;10.59;87.21;101432.84;5061687;28;70415;-59
2023/12/21 00:35:46;;;;;;;;;0.00;0.00;;;;;10.61;87.72;101439.91;5058100;28;73691;-59
2023/12/21 00:38:11;;;;;;;;;0.67;0.00;;;;;10.63;87.10;101419.44;5059098;28;73222;-59
2023/12/21 00:40:37;;;;;;;;;0.00;0.00;;;;;10.63;87.52;101414.97;5059661;28;45398;-58
2023/12/21 00:43:02;;;;;;;;;0.00;0.00;;;;;10.64;87.94;101411.38;5057241;28;64048;-58
2023/12/21 00:45:28;;;;;;;;;0.00;0.00;;;;;10.64;87.15;101410.50;5059141;28;47008;-58
2023/12/21 00:47:54;;;;;;;;;2.33;0.00;;;;;10.65;87.44;101420.22;5060106;28;45510;-58
2023/12/21 00:50:19;;;;;;;;;3.00;1.67;;;;;10.65;87.74;101415.78;5055040;28;69236;-59
2023/12/21 00:52:44;;;;;;;;;0.00;0.00;;;;;10.67;87.54;101402.41;5057656;28;65068;-59
2023/12/21 00:55:10;;;;;;;;;1.00;0.00;;;;;10.65;87.90;101397.16;5057844;28;75828;-59
2023/12/21 00:57:35;;;;;;;;;1.00;0.00;;;;;10.65;87.39;101390.97;5060508;28;56200;-59
2023/12/21 01:00:01;;;;;;;;;0.00;0.00;;;;;10.65;87.56;101391.84;5063357;28;45445;-58
2023/12/21 01:02:26;;;;;;;;;1.00;0.00;;;;;10.65;87.98;101385.63;5059040;28;62041;-58
2023/12/21 01:04:51;;;;;;;;;1.00;1.00;;;;;10.65;87.74;101391.84;5059849;28;46079;-58
2023/12/21 01:07:17;;;;;;;;;0.00;0.00;;;;;10.65;87.79;101383.88;5054413;28;68911;-57
2023/12/21 01:09:42;;;;;;;;;0.33;0.33;;;;;10.65;87.38;101396.28;5059139;28;45248;-57
2023/12/21 01:12:08;;;;;;;;;4.00;1.00;;;;;10.62;88.13;101383.97;5058177;28;58353;-58
2023/12/21 01:14:33;;;;;;;;;2.00;1.00;;;;;10.63;87.83;101375.06;5061196;28;46766;-58
2023/12/21 01:16:59;;;;;;;;;1.33;0.00;;;;;10.62;88.24;101373.31;5058901;28;45307;-59
2023/12/21 01:19:24;;;;;;;;;0.33;0.33;;;;;10.61;87.69;101379.56;5061816;28;54809;-58
2023/12/21 01:21:49;;;;;;;;;2.67;0.33;;;;;10.61;88.15;101362.75;5058441;28;45548;-58
2023/12/21 01:24:15;;;;;;;;;0.00;0.00;;;;;10.61;88.53;101341.47;5057491;28;66911;-58
2023/12/21 01:26:41;;;;;;;;;7.33;2.00;;;;;10.62;87.69;101357.38;5056623;28;70147;-58
2023/12/21 01:29:06;;;;;;;;;2.00;2.00;;;;;10.61;87.69;101354.78;5064034;28;45343;-58
2023/12/21 01:31:31;;;;;;;;;3.67;2.00;;;;;10.61;88.39;101346.78;5058028;28;66099;-58
2023/12/21 01:33:57;;;;;;;;;0.33;0.33;;;;;10.60;88.17;101340.63;5044528;28;74740;-58
2023/12/21 01:36:22;;;;;;;;;0.33;0.33;;;;;10.56;88.45;101339.88;5058709;28;45683;-57
2023/12/21 01:38:47;;;;;;;;;2.00;0.00;;;;;10.54;88.13;101338.22;5060066;28;45523;-59
2023/12/21 01:41:12;;;;;;;;;2.00;1.33;;;;;10.51;88.26;101343.66;5052919;28;70555;-58
2023/12/21 01:43:38;;;;;;;;;3.00;1.00;;;;;10.51;88.82;101336.53;5059400;28;74493;-58
2023/12/21 01:46:04;;;;;;;;;0.00;0.00;;;;;10.51;88.89;101336.53;5057627;28;45327;-58
2023/12/21 01:48:30;;;;;;;;;0.00;0.00;;;;;10.53;89.00;101329.38;5061304;28;45352;-58
2023/12/21 01:50:57;;;;;;;;;0.00;0.00;;;;;10.54;89.03;101322.25;5058107;28;46072;-59
2023/12/21 01:53:23;;;;;;;;;3.00;0.00;;;;;10.54;88.96;101319.59;5056909;28;47475;-59
2023/12/21 01:55:48;;;;;;;;;0.00;0.00;;;;;10.54;89.07;101304.47;5055767;28;70692;-58
2023/12/21 01:58:14;;;;;;;;;0.00;0.00;;;;;10.56;88.80;101302.63;5062545;28;45515;-59
2023/12/21 02:00:39;;;;;;;;;2.00;1.00;;;;;10.56;89.05;101307.94;5054084;28;45493;-59
2023/12/21 02:03:04;;;;;;;;;0.67;0.67;;;;;10.54;89.74;101307.13;5059593;28;71811;-59
2023/12/21 02:05:30;;;;;;;;;0.00;0.00;;;;;10.51;89.55;101288.66;5058412;28;73275;-59
2023/12/21 02:07:55;;;;;;;;;2.00;0.00;;;;;10.50;89.25;101278.09;5055808;28;66247;-58
2023/12/21 02:10:20;;;;;;;;;0.00;0.00;;;;;10.47;90.11;101280.84;5057365;28;70293;-59
2023/12/21 02:12:46;;;;;;;;;0.33;0.00;;;;;10.46;90.62;101289.78;5061519;28;49666;-59
2023/12/21 02:15:11;;;;;;;;;0.67;0.00;;;;;10.46;90.96;101276.50;5064391;28;46028;-59
2023/12/21 02:17:38;;;;;;;;;2.00;0.00;;;;;10.42;91.65;101265.13;5059546;28;69191;-59
2023/12/21 02:20:05;;;;;;;;;0.00;0.00;;;;;10.40;91.50;101274.94;5060799;28;45335;-59
2023/12/21 02:22:36;;;;;;;;;0.33;0.00;;;;;10.41;91.12;101272.22;5093848;27;46209;-58
2023/12/21 02:25:02;;;;;;;;;0.00;0.00;;;;;10.39;91.48;101251.91;5060027;28;45545;-59
2023/12/21 02:27:27;;;;;;;;;3.00;0.00;;;;;10.35;91.50;101263.59;5062770;28;45525;-58
2023/12/21 02:29:53;;;;;;;;;0.00;0.00;;;;;10.32;90.96;101264.59;5059342;28;45475;-58
2023/12/21 02:32:18;;;;;;;;;0.00;0.00;;;;;10.31;91.46;101276.16;5060803;28;72285;-58
2023/12/21 02:34:44;;;;;;;;;0.00;0.00;;;;;10.31;91.88;101278.84;5060527;28;63840;-59
2023/12/21 02:37:09;;;;;;;;;0.00;0.00;;;;;10.31;92.26;101270.84;5062343;27;46358;-58
2023/12/21 02:39:34;;;;;;;;;0.00;0.00;;;;;10.32;92.44;101261.94;5059125;28;69710;-59
2023/12/21 02:42:00;;;;;;;;;0.00;0.00;;;;;10.36;92.64;101263.56;5059598;28;46197;-59
2023/12/21 02:44:25;;;;;;;;;0.00;0.00;;;;;10.38;92.48;101261.72;5060426;28;66609;-58
2023/12/21 02:46:50;;;;;;;;;0.33;0.00;;;;;10.37;93.11;101262.63;5060086;28;68604;-59
2023/12/21 02:49:16;;;;;;;;;0.00;0.00;;;;;10.39;93.10;101254.59;5061493;28;70368;-58
2023/12/21 02:51:41;;;;;;;;;0.00;0.00;;;;;10.39;92.92;101252.81;5056466;28;75744;-58
2023/12/21 02:54:06;;;;;;;;;0.00;0.00;;;;;10.40;93.41;101254.53;5059212;28;69955;-58
2023/12/21 02:56:32;;;;;;;;;0.00;0.00;;;;;10.43;93.52;101249.09;5060549;28;69004;-58
2023/12/21 02:58:57;;;;;;;;;0.00;0.00;;;;;10.47;92.44;101247.16;5060590;28;45321;-58
2023/12/21 03:01:22;;;;;;;;;0.00;0.00;;;;;10.48;93.07;101243.59;5060617;28;69238;-58
2023/12/21 03:03:47;;;;;;;;;0.00;0.00;;;;;10.46;93.69;101248.09;5063396;27;45487;-58
2023/12/21 03:06:13;;;;;;;;;0.00;0.00;;;;;10.47;93.82;101244.50;5056802;28;66736;-57
2023/12/21 03:08:39;;;;;;;;;0.00;0.00;;;;;10.48;93.73;101242.69;5058439;28;63388;-58
2023/12/21 03:11:04;;;;;;;;;0.00;0.00;;;;;10.49;93.79;101239.97;5060697;28;46477;-58
2023/12/21 03:13:29;;;;;;;;;0.00;0.00;;;;;10.50;93.46;101236.38;5059781;28;68791;-58
2023/12/21 03:15:55;;;;;;;;;0.00;0.00;;;;;10.51;93.74;101240.78;5062037;28;69331;-59
2023/12/21 03:18:20;;;;;;;;;0.00;0.00;;;;;10.51;94.15;101235.47;5061046;28;56279;-59
2023/12/21 03:20:45;;;;;;;;;0.67;0.00;;;;;10.52;93.81;101220.34;5060151;28;64671;-58
2023/12/21 03:23:11;;;;;;;;;1.67;0.00;;;;;10.52;94.38;101217.69;5057157;28;73208;-58
2023/12/21 03:25:36;;;;;;;;;0.00;0.00;;;;;10.53;95.19;101224.75;5060347;28;54885;-59
2023/12/21 03:28:03;;;;;;;;;0.00;0.00;;;;;10.54;94.08;101216.69;5093942;27;45724;-58
2023/12/21 03:30:28;;;;;;;;;0.00;0.00;;;;;10.56;94.63;101212.19;5061982;28;46364;-58
2023/12/21 03:32:54;;;;;;;;;0.00;0.00;;;;;10.58;94.72;101210.31;5058963;28;70003;-59
2023/12/21 03:35:19;;;;;;;;;0.00;0.00;;;;;10.57;95.80;101207.72;5060450;28;45330;-59
2023/12/21 03:37:45;;;;;;;;;0.00;0.00;;;;;10.55;95.30;101209.59;5060307;28;52898;-59
2023/12/21 03:40:11;;;;;;;;;0.00;0.00;;;;;10.53;95.37;101198.16;5061446;28;46374;-59
2023/12/21 03:42:36;;;;;;;;;0.00;0.00;;;;;10.50;95.17;101200.97;5059956;28;45486;-58
2023/12/21 03:45:02;;;;;;;;;0.00;0.00;;;;;10.47;95.68;101203.72;5058117;28;57050;-59
2023/12/21 03:47:27;;;;;;;;;0.00;0.00;;;;;10.44;96.04;101194.09;5061787;28;45586;-59
2023/12/21 03:49:52;;;;;;;;;0.00;0.00;;;;;10.45;95.91;101192.31;5058973;28;74405;-59
2023/12/21 03:52:18;;;;;;;;;1.00;0.00;;;;;10.47;96.38;101182.44;5058857;28;70495;-59
2023/12/21 03:54:43;;;;;;;;;0.00;0.00;;;;;10.51;96.09;101176.09;5060538;28;45675;-59
2023/12/21 03:57:08;;;;;;;;;1.67;0.00;;;;;10.53;96.05;101159.13;5059114;28;70566;-58
2023/12/21 03:59:35;;;;;;;;;0.00;0.00;;;;;10.57;95.48;101160.72;5061265;28;46481;-59
2023/12/21 04:02:01;;;;;;;;;0.00;0.00;;;;;10.56;96.56;101132.41;5058336;28;45634;-59
2023/12/21 04:04:26;;;;;;;;;0.00;0.00;;;;;10.54;96.73;101138.72;5062438;28;45260;-58
2023/12/21 04:06:52;;;;;;;;;1.33;0.00;;;;;10.52;95.45;101119.28;5060572;28;45450;-59
2023/12/21 04:09:17;;;;;;;;;0.00;0.00;;;;;10.50;95.67;101100.75;5062761;28;75823;-58
2023/12/21 04:11:42;;;;;;;;;0.00;0.00;;;;;10.52;96.09;101104.22;5058720;28;72085;-58
2023/12/21 04:14:08;;;;;;;;;1.00;1.00;;;;;10.54;96.41;101101.47;5066300;28;62530;-60
2023/12/21 04:16:33;;;;;;;;;1.00;0.00;;;;;10.56;96.63;101097.81;5062735;28;66112;-58
2023/12/21 04:18:58;;;;;;;;;0.00;0.00;;;;;10.60;96.00;101093.22;5060550;28;71619;-58
2023/12/21 04:21:24;;;;;;;;;0.00;0.00;;;;;10.61;95.96;101102.91;5060195;28;45533;-58
2023/12/21 04:23:49;;;;;;;;;1.00;0.00;;;;;10.62;96.66;101095.81;5058755;28;65478;-58
2023/12/21 04:26:22;;;;;;;;;0.00;0.00;;;;;10.64;96.35;101088.59;5058962;28;52396;-58
2023/12/21 04:28:48;;;;;;;;;0.00;0.00;;;;;10.67;96.16;101096.47;5043460;28;47549;-58
2023/12/21 04:31:21;;;;;;;;;0.33;0.00;;;;;10.70;95.78;101088.34;5059278;28;45357;-58
2023/12/21 04:33:49;;;;;;;;;0.00;0.00;;;;;10.69;95.53;101098.13;5058097;28;45362;-59
2023/12/21 04:36:14;;;;;;;;;0.00;0.00;;;;;10.70;95.69;101085.66;5060186;28;45395;-59
2023/12/21 04:38:40;;;;;;;;;1.00;0.00;;;;;10.73;95.42;101077.56;5067048;27;45546;-58
2023/12/21 04:41:05;;;;;;;;;1.00;0.00;;;;;10.74;95.36;101088.13;5058481;28;52592;-58
2023/12/21 04:43:30;;;;;;;;;0.00;0.00;;;;;10.75;95.41;101091.66;5058247;28;66551;-58
2023/12/21 04:45:56;;;;;;;;;0.33;0.00;;;;;10.76;95.72;101083.59;5057738;28;70542;-58
2023/12/21 04:48:21;;;;;;;;;0.00;0.00;;;;;10.79;95.51;101071.94;5066399;28;74284;-58
2023/12/21 04:50:46;;;;;;;;;0.00;0.00;;;;;10.81;95.67;101071.84;5061789;27;73631;-58
2023/12/21 04:53:12;;;;;;;;;0.00;0.00;;;;;10.82;95.39;101074.47;5057906;28;68633;-58
2023/12/21 04:55:37;;;;;;;;;0.00;0.00;;;;;10.83;95.55;101076.19;5064789;28;45474;-58
2023/12/21 04:58:02;;;;;;;;;1.00;0.00;;;;;10.85;95.24;101079.66;5059911;27;45938;-58
2023/12/21 05:00:29;;;;;;;;;0.00;0.00;;;;;10.85;94.91;101084.13;5062071;27;48677;-58
2023/12/21 05:02:54;;;;;;;;;0.00;0.00;;;;;10.81;95.94;101064.75;5060957;28;45280;-59
2023/12/21 05:05:21;;;;;;;;;1.00;0.00;;;;;10.80;96.35;101063.03;5058937;28;45276;-58
2023/12/21 05:07:46;;;;;;;;;0.00;0.00;;;;;10.80;96.36;101065.69;5059994;28;46357;-58
2023/12/21 05:10:12;;;;;;;;;0.00;0.00;;;;;10.82;96.52;101053.19;5061956;28;45430;-58
2023/12/21 05:12:37;;;;;;;;;0.00;0.00;;;;;10.83;96.60;101051.38;5066845;28;56848;-59
2023/12/21 05:15:03;;;;;;;;;0.00;0.00;;;;;10.84;96.65;101050.44;5064198;28;45455;-58
2023/12/21 05:17:28;;;;;;;;;1.00;0.00;;;;;10.86;96.74;101049.44;5060130;28;46235;-59
2023/12/21 05:19:53;;;;;;;;;0.00;0.00;;;;;10.89;96.51;101061.75;5058805;28;73424;-58
2023/12/21 05:22:19;;;;;;;;;0.00;0.00;;;;;10.92;96.11;101058.91;5058444;28;46363;-58
2023/12/21 05:24:44;;;;;;;;;0.00;0.00;;;;;10.92;96.18;101049.16;5058492;28;45858;-57
2023/12/21 05:27:10;;;;;;;;;0.00;0.00;;;;;10.93;95.96;101060.66;5058257;28;45553;-58
2023/12/21 05:29:35;;;;;;;;;0.00;0.00;;;;;10.93;95.55;101042.88;5062799;27;45486;-59
2023/12/21 05:32:01;;;;;;;;;0.00;0.00;;;;;10.95;95.81;101042.81;5056818;28;67987;-59
2023/12/21 05:34:26;;;;;;;;;0.00;0.00;;;;;10.97;96.01;101062.22;5059152;28;45501;-58
2023/12/21 05:36:51;;;;;;;;;0.00;0.00;;;;;10.99;95.33;101064.81;5058395;28;46002;-58
2023/12/21 05:39:17;;;;;;;;;0.00;0.00;;;;;10.99;95.79;101067.47;5057208;28;62101;-59
2023/12/21 05:41:42;;;;;;;;;0.00;0.00;;;;;11.00;95.26;101059.44;5056337;28;59040;-59
2023/12/21 05:44:07;;;;;;;;;0.00;0.00;;;;;11.00;95.48;101047.91;5056532;28;59619;-59
2023/12/21 05:46:33;;;;;;;;;0.00;0.00;;;;;11.00;96.34;101035.50;5060587;28;75595;-58
2023/12/21 05:48:58;;;;;;;;;0.00;0.00;;;;;11.01;95.86;101025.69;5061296;28;73714;-59
2023/12/21 05:51:24;;;;;;;;;0.00;0.00;;;;;11.02;95.88;101028.28;5062966;28;45431;-59
2023/12/21 05:53:49;;;;;;;;;0.00;0.00;;;;;11.03;95.70;101008.72;5061125;28;45536;-59
2023/12/21 05:56:14;;;;;;;;;0.00;0.00;;;;;11.04;95.91;101002.47;5060343;28;74651;-58
2023/12/21 05:58:40;;;;;;;;;0.00;0.00;;;;;11.04;96.14;100999.78;5060443;28;73296;-60
2023/12/21 06:01:05;;;;;;;;;0.00;0.00;;;;;11.06;95.60;100997.06;5063238;28;45449;-59
2023/12/21 06:03:30;;;;;;;;;0.00;0.00;;;;;11.07;95.57;100985.47;5066751;28;46623;-58
2023/12/21 06:05:56;;;;;;;;;0.00;0.00;;;;;11.08;95.40;100995.16;5060342;28;66757;-59
2023/12/21 06:08:21;;;;;;;;;0.00;0.00;;;;;11.05;95.83;100982.84;5044940;28;45339;-59
2023/12/21 06:10:47;;;;;;;;;0.00;0.00;;;;;11.03;95.79;100989.19;5065943;28;45492;-59
2023/12/21 06:13:12;;;;;;;;;1.00;0.00;;;;;11.03;95.77;101003.38;5056673;28;45778;-59
2023/12/21 06:15:38;;;;;;;;;0.00;0.00;;;;;11.05;95.57;101003.31;5064439;28;45596;-59
2023/12/21 06:18:03;;;;;;;;;0.00;0.00;;;;;11.05;95.78;100998.84;5063044;28;45644;-59
2023/12/21 06:20:30;;;;;;;;;0.00;0.00;;;;;11.07;95.28;100985.47;5061615;28;45327;-59
2023/12/21 06:22:55;;;;;;;;;0.00;0.00;;;;;11.05;95.98;100998.84;5060298;28;45371;-60
2023/12/21 06:25:21;;;;;;;;;0.00;0.00;;;;;11.06;95.91;101019.19;5040315;28;45735;-59
2023/12/21 06:27:47;;;;;;;;;0.00;0.00;;;;;11.07;95.58;101009.44;5055968;28;45369;-59
2023/12/21 06:30:12;;;;;;;;;0.00;0.00;;;;;11.07;96.01;100996.97;5060900;28;45356;-59
2023/12/21 06:32:38;;;;;;;;;0.00;0.00;;;;;11.11;95.45;101005.69;5092343;27;45523;-59
2023/12/21 06:35:03;;;;;;;;;0.00;0.00;;;;;11.11;95.00;101011.00;5061358;28;75793;-59
2023/12/21 06:37:29;;;;;;;;;0.00;0.00;;;;;11.09;94.92;101013.75;5062027;28;45494;-59
2023/12/21 06:39:54;;;;;;;;;0.00;0.00;;;;;11.07;95.08;101020.06;5052168;28;45543;-59
2023/12/21 06:42:20;;;;;;;;;0.00;0.00;;;;;11.07;95.63;101014.75;5055802;28;45468;-58
2023/12/21 06:44:45;;;;;;;;;0.00;0.00;;;;;11.09;95.09;101002.22;5058092;28;74873;-59
2023/12/21 06:47:10;;;;;;;;;0.00;0.00;;;;;11.10;95.26;101006.59;5057606;28;73228;-58
2023/12/21 06:49:36;;;;;;;;;0.00;0.00;;;;;11.12;95.55;101007.41;5060456;28;45529;-61
2023/12/21 06:52:01;;;;;;;;;0.00;0.00;;;;;11.15;95.37;101009.06;5060135;28;66217;-58
2023/12/21 06:54:27;;;;;;;;;0.00;0.00;;;;;11.16;95.19;101019.63;5060950;28;45964;-58
2023/12/21 06:56:52;;;;;;;;;0.00;0.00;;;;;11.18;95.07;101020.41;5059699;28;45343;-59
2023/12/21 06:59:17;;;;;;;;;0.00;0.00;;;;;11.19;94.89;101021.28;5058883;28;66767;-58
2023/12/21 07:01:43;;;;;;;;;0.00;0.00;;;;;11.20;94.99;101012.34;5059992;28;56014;-59
2023/12/21 07:04:08;;;;;;;;;0.00;0.00;;;;;11.20;94.99;101015.88;5058968;28;74648;-59
2023/12/21 07:06:34;;;;;;;;;0.00;0.00;;;;;11.21;95.10;101014.06;5060639;28;45439;-59
2023/12/21 07:08:59;;;;;;;;;0.00;0.00;;;;;11.22;95.03;101029.09;5060359;28;45348;-59
2023/12/21 07:11:25;;;;;;;;;0.00;0.00;;;;;11.23;94.50;101038.81;5059253;28;45480;-59
2023/12/21 07:13:51;;;;;;;;;0.00;0.00;;;;;11.23;94.92;101025.50;5032601;28;47604;-59
2023/12/21 07:16:16;;;;;;;;;0.00;0.00;;;;;11.25;94.88;101039.59;5059396;28;45714;-59
2023/12/21 07:18:42;;;;;;;;;0.00;0.00;;;;;11.26;95.31;101041.31;5093911;27;45420;-59
2023/12/21 07:21:07;;;;;;;;;0.00;0.00;;;;;11.29;95.19;101037.66;5060049;28;45538;-58
2023/12/21 07:23:32;;;;;;;;;0.00;0.00;;;;;11.30;95.16;101036.72;5059296;28;46016;-59
2023/12/21 07:25:58;;;;;;;;;1.00;0.00;;;;;11.30;94.84;101021.59;5059032;28;69638;-58
2023/12/21 07:28:25;;;;;;;;;0.00;0.00;;;;;11.31;94.66;101035.78;5060529;28;45611;-58
2023/12/21 07:30:50;;;;;;;;;0.00;0.00;;;;;11.31;95.19;101030.47;5059462;28;45575;-58
2023/12/21 07:33:16;;;;;;;;;1.00;0.00;;;;;11.31;95.04;101023.31;5052374;28;46039;-59
2023/12/21 07:35:41;;;;;;;;;1.00;0.00;;;;;11.33;95.48;101028.56;5054970;28;56620;-58
2023/12/21 07:38:07;;;;;;;;;0.00;0.00;;;;;11.33;94.84;101016.13;5059224;28;45475;-59
2023/12/21 07:40:32;;;;;;;;;0.00;0.00;;;;;11.33;95.21;101004.59;5061592;28;45295;-59
2023/12/21 07:42:57;;;;;;;;;0.00;0.00;;;;;11.32;95.28;101006.41;5059215;28;46482;-59
2023/12/21 07:45:23;;;;;;;;;0.00;0.00;;;;;11.32;95.42;101010.88;5059187;28;65836;-58
2023/12/21 07:47:48;;;;;;;;;0.00;0.00;;;;;11.31;95.61;101001.16;5061290;28;69267;-58
2023/12/21 07:50:14;;;;;;;;;2.00;0.00;;;;;11.29;95.32;101001.25;5060113;28;45335;-59
2023/12/21 07:52:39;;;;;;;;;0.00;0.00;;;;;11.29;95.30;101009.25;5059519;28;54865;-58
2023/12/21 07:55:06;;;;;;;;;0.00;0.00;;;;;11.29;95.76;100992.38;5069478;28;45395;-58
2023/12/21 07:57:32;;;;;;;;;0.00;0.00;;;;;11.31;95.29;100996.69;5060237;28;45529;-58
2023/12/21 07:59:57;;;;;;;;;0.00;0.00;;;;;11.31;95.30;100991.38;5060125;28;45718;-59
2023/12/21 08:02:22;;;;;;;;;1.00;0.00;;;;;11.30;95.77;101007.44;5090755;27;60937;-59
2023/12/21 08:04:48;;;;;;;;;0.00;0.00;;;;;11.29;95.94;100992.38;5058575;28;71209;-59
2023/12/21 08:07:13;;;;;;;;;0.00;0.00;;;;;11.30;95.75;100992.28;5061772;28;45348;-58
2023/12/21 08:09:39;;;;;;;;;0.00;0.00;;;;;11.29;95.92;100985.28;5061967;28;67455;-54
2023/12/21 08:12:04;;;;;;;;;0.00;0.00;;;;;11.32;95.53;100970.94;5057708;28;47339;-54
2023/12/21 08:14:31;;;;;;;;;0.00;0.00;;;;;11.31;95.87;100959.41;5094820;27;45338;-54
2023/12/21 08:16:59;;;;;;;;;0.00;0.00;;;;;11.32;95.81;100954.97;5057827;28;45613;-55
2023/12/21 08:19:25;;;;;;;;;0.00;0.00;;;;;11.31;96.18;100963.88;5059525;28;45616;-55
2023/12/21 08:21:50;;;;;;;;;1.67;0.00;;;;;11.28;96.31;100978.22;5059024;28;46217;-59
2023/12/21 08:24:16;;;;;;;;;0.00;0.00;;;;;11.29;96.18;100955.97;5059358;28;45256;-55
2023/12/21 08:26:41;;;;;;;;;3.00;1.00;;;;;11.29;96.06;100940.00;5057746;28;54562;-55
2023/12/21 08:29:07;;;;;;;;;0.00;0.00;;;;;11.30;96.83;100955.00;5058768;28;45753;-54
2023/12/21 08:31:32;;;;;;;;;0.00;0.00;;;;;11.32;96.18;100960.28;5058961;28;72480;-55
2023/12/21 08:33:57;;;;;;;;;0.00;0.00;;;;;11.35;95.88;100945.00;5103883;27;45333;-54
2023/12/21 08:36:23;;;;;;;;;1.00;0.00;;;;;11.37;96.40;100935.13;5060274;28;45745;-55
2023/12/21 08:38:48;;;;;;;;;1.33;0.00;;;;;11.38;96.08;100944.84;5059179;28;70569;-54
2023/12/21 08:41:14;;;;;;;;;0.67;0.00;;;;;11.39;96.96;100967.88;5060012;28;45380;-54
2023/12/21 08:43:39;;;;;;;;;0.00;0.00;;;;;11.42;95.91;100978.38;5075547;27;45303;-55
2023/12/21 08:46:05;;;;;;;;;1.00;0.00;;;;;11.42;96.32;100972.19;5059885;28;45382;-55
2023/12/21 08:48:30;;;;;;;;;0.00;0.00;;;;;11.44;96.61;100982.78;5060115;28;45660;-55
2023/12/21 08:50:55;;;;;;;;;0.00;0.00;;;;;11.47;96.29;100974.63;5059364;28;45278;-55
2023/12/21 08:53:21;;;;;;;;;0.00;0.00;;;;;11.47;96.35;100975.50;5059222;28;64029;-54
2023/12/21 08:55:46;;;;;;;;;0.00;0.00;;;;;11.49;96.60;100981.59;5060417;28;45382;-54
2023/12/21 08:58:12;;;;;;;;;0.00;0.00;;;;;11.51;96.18;100973.50;5059733;28;45617;-55
2023/12/21 09:00:37;;;;;;;;;0.00;0.00;;;;;11.53;96.15;100975.16;5059148;28;46335;-57
2023/12/21 09:03:03;;;;;;;;;0.00;0.00;;;;;11.56;96.39;100974.13;5059100;28;45510;-55
2023/12/21 09:05:28;;;;;;;;;0.00;0.00;;;;;11.59;96.38;100984.66;5058145;28;45394;-55
2023/12/21 09:07:54;;;;;;;;;0.00;0.00;;;;;11.63;95.89;100980.00;5074847;28;49822;-55
2023/12/21 09:10:19;;;;;;;;;0.00;0.00;;;;;11.66;95.73;100978.06;5059239;28;46375;-55
2023/12/21 09:12:45;;;;;;;;;0.00;0.00;;;;;11.71;95.76;100972.50;5058781;28;59662;-54
2023/12/21 09:15:10;;;;;;;;;0.00;0.00;;;;;11.74;96.04;100973.19;5057835;28;68109;-55
2023/12/21 09:17:35;;;;;;;;;0.00;0.00;;;;;11.77;95.91;100971.31;5075149;28;45459;-55
2023/12/21 09:20:01;;;;;;;;;0.00;0.00;;;;;11.79;95.79;100974.78;5057058;28;70026;-55
2023/12/21 09:22:26;;;;;;;;;0.00;0.00;;;;;11.79;96.56;100964.97;5074483;28;45327;-55
2023/12/21 09:24:52;;;;;;;;;0.00;0.00;;;;;11.80;95.71;100965.81;5058045;28;64411;-55
2023/12/21 09:27:17;;;;;;;;;0.00;0.00;;;;;11.82;96.03;100974.59;5057944;28;66712;-55
2023/12/21 09:29:42;;;;;;;;;0.00;0.00;;;;;11.82;95.92;100964.78;5058280;28;45578;-54
2023/12/21 09:32:08;;;;;;;;;0.00;0.00;;;;;11.84;95.90;100962.91;5057411;28;45579;-55
2023/12/21 09:34:34;;;;;;;;;0.67;0.00;;;;;11.86;95.78;100970.81;5058477;28;45486;-54
2023/12/21 09:36:59;;;;;;;;;0.67;0.67;;;;;11.87;96.70;100964.56;5058131;28;45522;-54
2023/12/21 09:39:25;;;;;;;;;0.00;0.00;;;;;11.86;96.74;100968.16;5056987;28;45948;-54
2023/12/21 09:41:50;;;;;;;;;0.00;0.00;;;;;11.86;96.99;100965.50;5057416;28;45346;-54
2023/12/21 09:44:17;;;;;;;;;0.00;0.00;;;;;11.85;96.11;100940.66;5056881;28;45258;-54
2023/12/21 09:46:46;;;;;;;;;0.00;0.00;;;;;11.84;96.28;100941.59;5058910;28;45302;-55
2023/12/21 09:49:16;;;;;;;;;0.00;0.00;;;;;11.83;97.01;100958.53;5084401;27;46375;-54
2023/12/21 09:51:44;;;;;;;;;0.00;0.00;;;;;11.82;96.89;100948.78;5052116;28;45612;-53
2023/12/21 09:54:10;;;;;;;;;0.00;0.00;;;;;11.83;97.13;100939.00;5057383;28;45805;-54
2023/12/21 09:56:35;;;;;;;;;0.00;0.00;;;;;11.81;97.90;100938.22;5058885;28;45429;-55
2023/12/21 09:59:01;;;;;;;;;1.00;0.00;;;;;11.82;97.50;100931.94;5056832;28;75691;-54
2023/12/21 10:01:26;;;;;;;;;0.00;0.00;;;;;11.83;97.17;100952.34;5089518;27;57430;-54
2023/12/21 10:03:52;;;;;;;;;0.00;0.00;;;;;11.82;97.33;100940.78;5057792;28;45740;-55
2023/12/21 10:06:17;;;;;;;;;0.00;0.00;;;;;11.84;97.60;100938.94;5091279;27;45578;-55
2023/12/21 10:08:43;;;;;;;;;0.00;0.00;;;;;11.87;97.83;100929.91;5057025;28;45737;-55
2023/12/21 10:11:08;;;;;;;;;1.00;0.00;;;;;11.86;97.55;100925.50;5057989;28;45307;-55
2023/12/21 10:13:34;;;;;;;;;2.00;0.00;;;;;11.86;97.97;100928.19;5057708;28;45393;-56
2023/12/21 10:16:00;;;;;;;;;0.00;0.00;;;;;11.87;97.59;100932.56;5053210;28;45422;-54
2023/12/21 10:18:29;;;;;;;;;0.00;0.00;;;;;11.88;97.62;100926.31;5055093;28;46252;-54
2023/12/21 10:20:55;;;;;;;;;1.00;0.00;;;;;11.88;98.07;100921.81;5056226;28;45694;-55
2023/12/21 10:23:21;;;;;;;;;0.33;0.33;;;;;11.90;98.01;100919.06;5057691;28;45704;-55
2023/12/21 10:25:47;;;;;;;;;0.00;0.00;;;;;11.93;98.00;100924.25;5055685;28;61747;-55
2023/12/21 10:28:12;;;;;;;;;0.00;0.00;;;;;11.95;97.65;100917.06;5052732;28;46484;-53
2023/12/21 10:30:38;;;;;;;;;0.00;0.00;;;;;11.97;97.57;100919.63;5053584;28;68304;-55
2023/12/21 10:33:03;;;;;;;;;0.00;0.00;;;;;11.96;97.59;100931.25;5049305;28;45773;-55
2023/12/21 10:35:29;;;;;;;;;0.00;0.00;;;;;11.96;97.70;100918.78;5061005;28;45550;-55
2023/12/21 10:37:54;;;;;;;;;0.00;0.00;;;;;11.95;97.75;100927.72;5050680;28;45991;-55
2023/12/21 10:40:22;;;;;;;;;0.00;0.00;;;;;11.96;98.34;100944.59;5061923;28;45287;-54
2023/12/21 10:42:48;;;;;;;;;0.00;0.00;;;;;11.91;98.02;100937.66;5061587;28;45743;-54
2023/12/21 10:45:16;;;;;;;;;0.00;0.00;;;;;11.90;98.22;100946.59;5059855;28;45565;-56
2023/12/21 10:47:48;;;;;;;;;0.00;0.00;;;;;11.89;98.27;100939.53;5059178;28;45371;-56
2023/12/21 10:50:15;;;;;;;;;0.00;0.00;;;;;11.90;98.07;100941.28;5059893;28;45674;-56
2023/12/21 10:52:41;;;;;;;;;1.00;1.00;;;;;11.92;98.63;100943.84;5061869;28;45321;-56
2023/12/21 10:55:10;;;;;;;;;2.00;2.00;;;;;11.94;98.46;100931.28;5060882;28;45557;-56
2023/12/21 10:57:38;;;;;;;;;1.00;1.00;;;;;11.95;98.40;100927.72;5064921;28;46968;-55
2023/12/21 11:00:05;;;;;;;;;0.00;0.00;;;;;11.97;98.26;100922.28;5058694;28;45490;-55
2023/12/21 11:02:30;;;;;;;;;0.00;0.00;;;;;11.98;98.71;100919.56;5093896;27;45524;-55
2023/12/21 11:04:56;;;;;;;;;1.33;0.33;;;;;12.02;97.92;100925.56;5059359;28;47306;-55
2023/12/21 11:07:22;;;;;;;;;0.00;0.00;;;;;12.00;98.22;100925.66;5093075;27;70376;-55
2023/12/21 11:09:48;;;;;;;;;0.00;0.00;;;;;12.01;97.98;100918.53;5059421;28;45331;-55
2023/12/21 11:12:13;;;;;;;;;1.00;1.00;;;;;12.02;97.68;100907.78;5093787;27;45433;-54
2023/12/21 11:14:39;;;;;;;;;0.00;0.00;;;;;12.02;98.18;100885.59;5060629;28;45259;-54
2023/12/21 11:17:04;;;;;;;;;0.00;0.00;;;;;12.05;98.09;100888.94;5058423;28;73653;-56